sensor_id;sensor_type;location;lat;lon;timestamp;P1;durP1;ratioP1;P2;durP2;ratioP2
24030;SDS011;12240;51.142;22.486;2022-12-05T00:02:01;10.55;;;4.38;;
24030;SDS011;12240;51.142;22.486;2022-12-05T00:04:30;12.32;;;5.75;;
24030;SDS011;12240;51.142;22.486;2022-12-05T00:06:58;11.32;;;4.40;;
24030;SDS011;12240;51.142;22.486;2022-12-05T00:09:28;14.63;;;6.13;;
24030;SDS011;12240;51.142;22.486;2022-12-05T00:11:59;8.55;;;4.13;;
24030;SDS011;12240;51.142;22.486;2022-12-05T00:14:32;11.02;;;4.57;;
24030;SDS011;12240;51.142;22.486;2022-12-05T00:17:00;14.88;;;5.97;;
24030;SDS011;12240;51.142;22.486;2022-12-05T00:19:30;12.02;;;5.25;;
24030;SDS011;12240;51.142;22.486;2022-12-05T00:22:03;15.40;;;6.28;;
24030;SDS011;12240;51.142;22.486;2022-12-05T00:24:31;15.27;;;5.80;;
24030;SDS011;12240;51.142;22.486;2022-12-05T00:26:59;14.05;;;6.05;;
24030;SDS011;12240;51.142;22.486;2022-12-05T00:29:27;13.90;;;6.10;;
24030;SDS011;12240;51.142;22.486;2022-12-05T00:31:58;14.57;;;7.10;;
24030;SDS011;12240;51.142;22.486;2022-12-05T00:34:28;11.18;;;5.30;;
24030;SDS011;12240;51.142;22.486;2022-12-05T00:37:06;13.68;;;6.20;;
24030;SDS011;12240;51.142;22.486;2022-12-05T00:39:38;13.25;;;4.97;;
24030;SDS011;12240;51.142;22.486;2022-12-05T00:42:09;15.23;;;5.90;;
24030;SDS011;12240;51.142;22.486;2022-12-05T00:44:45;14.85;;;5.50;;
24030;SDS011;12240;51.142;22.486;2022-12-05T00:47:28;13.43;;;5.70;;
24030;SDS011;12240;51.142;22.486;2022-12-05T00:50:00;13.00;;;4.65;;
24030;SDS011;12240;51.142;22.486;2022-12-05T00:52:37;13.75;;;6.00;;
24030;SDS011;12240;51.142;22.486;2022-12-05T00:55:10;14.43;;;5.32;;
24030;SDS011;12240;51.142;22.486;2022-12-05T00:57:44;13.25;;;5.78;;
24030;SDS011;12240;51.142;22.486;2022-12-05T01:00:21;13.27;;;3.78;;
24030;SDS011;12240;51.142;22.486;2022-12-05T01:02:56;10.50;;;4.68;;
24030;SDS011;12240;51.142;22.486;2022-12-05T01:05:33;11.75;;;4.85;;
24030;SDS011;12240;51.142;22.486;2022-12-05T01:08:35;13.35;;;6.03;;
24030;SDS011;12240;51.142;22.486;2022-12-05T01:11:17;14.65;;;6.53;;
24030;SDS011;12240;51.142;22.486;2022-12-05T01:14:01;14.88;;;6.32;;
24030;SDS011;12240;51.142;22.486;2022-12-05T01:16:38;16.52;;;7.97;;
24030;SDS011;12240;51.142;22.486;2022-12-05T01:19:23;13.90;;;6.07;;
24030;SDS011;12240;51.142;22.486;2022-12-05T01:21:57;20.10;;;7.18;;
24030;SDS011;12240;51.142;22.486;2022-12-05T01:24:35;13.45;;;5.72;;
24030;SDS011;12240;51.142;22.486;2022-12-05T01:27:07;12.95;;;6.00;;
24030;SDS011;12240;51.142;22.486;2022-12-05T01:32:09;11.18;;;5.10;;
24030;SDS011;12240;51.142;22.486;2022-12-05T01:37:16;10.82;;;4.43;;
24030;SDS011;12240;51.142;22.486;2022-12-05T01:39:45;15.27;;;5.70;;
24030;SDS011;12240;51.142;22.486;2022-12-05T01:42:14;10.55;;;4.72;;
24030;SDS011;12240;51.142;22.486;2022-12-05T01:44:59;13.27;;;4.90;;
24030;SDS011;12240;51.142;22.486;2022-12-05T01:47:41;8.65;;;4.88;;
24030;SDS011;12240;51.142;22.486;2022-12-05T01:50:11;9.70;;;4.57;;
24030;SDS011;12240;51.142;22.486;2022-12-05T01:52:40;9.55;;;4.40;;
24030;SDS011;12240;51.142;22.486;2022-12-05T01:55:10;17.05;;;7.15;;
24030;SDS011;12240;51.142;22.486;2022-12-05T01:57:58;16.35;;;6.20;;
24030;SDS011;12240;51.142;22.486;2022-12-05T02:00:28;10.98;;;5.53;;
24030;SDS011;12240;51.142;22.486;2022-12-05T02:02:58;14.20;;;6.35;;
24030;SDS011;12240;51.142;22.486;2022-12-05T02:05:33;14.57;;;6.43;;
24030;SDS011;12240;51.142;22.486;2022-12-05T02:08:05;14.75;;;5.95;;
24030;SDS011;12240;51.142;22.486;2022-12-05T02:10:37;10.13;;;4.57;;
24030;SDS011;12240;51.142;22.486;2022-12-05T02:31:09;14.13;;;6.05;;
24030;SDS011;12240;51.142;22.486;2022-12-05T02:33:49;12.80;;;4.22;;
24030;SDS011;12240;51.142;22.486;2022-12-05T02:37:06;10.00;;;4.82;;
24030;SDS011;12240;51.142;22.486;2022-12-05T02:39:52;14.60;;;5.50;;
24030;SDS011;12240;51.142;22.486;2022-12-05T02:45:37;18.42;;;7.35;;
24030;SDS011;12240;51.142;22.486;2022-12-05T02:48:13;11.00;;;4.70;;
24030;SDS011;12240;51.142;22.486;2022-12-05T02:50:44;16.35;;;7.75;;
24030;SDS011;12240;51.142;22.486;2022-12-05T02:53:15;14.23;;;6.45;;
24030;SDS011;12240;51.142;22.486;2022-12-05T02:55:47;12.15;;;5.78;;
24030;SDS011;12240;51.142;22.486;2022-12-05T02:58:26;13.23;;;5.93;;
24030;SDS011;12240;51.142;22.486;2022-12-05T03:01:00;17.98;;;7.13;;
24030;SDS011;12240;51.142;22.486;2022-12-05T03:03:32;12.48;;;5.95;;
24030;SDS011;12240;51.142;22.486;2022-12-05T03:08:44;12.70;;;6.65;;
24030;SDS011;12240;51.142;22.486;2022-12-05T03:11:43;15.27;;;6.40;;
24030;SDS011;12240;51.142;22.486;2022-12-05T03:14:19;17.40;;;7.07;;
24030;SDS011;12240;51.142;22.486;2022-12-05T03:16:56;12.38;;;5.55;;
24030;SDS011;12240;51.142;22.486;2022-12-05T03:19:39;13.07;;;6.35;;
24030;SDS011;12240;51.142;22.486;2022-12-05T03:22:39;17.17;;;7.68;;
24030;SDS011;12240;51.142;22.486;2022-12-05T03:25:15;14.77;;;5.55;;
24030;SDS011;12240;51.142;22.486;2022-12-05T03:30:58;14.10;;;6.47;;
24030;SDS011;12240;51.142;22.486;2022-12-05T03:33:35;15.30;;;5.80;;
24030;SDS011;12240;51.142;22.486;2022-12-05T03:36:12;17.45;;;7.15;;
24030;SDS011;12240;51.142;22.486;2022-12-05T03:44:33;13.32;;;6.13;;
24030;SDS011;12240;51.142;22.486;2022-12-05T03:47:20;15.40;;;6.35;;
24030;SDS011;12240;51.142;22.486;2022-12-05T03:49:59;12.30;;;6.20;;
24030;SDS011;12240;51.142;22.486;2022-12-05T03:52:40;14.13;;;6.05;;
24030;SDS011;12240;51.142;22.486;2022-12-05T03:55:35;19.42;;;8.98;;
24030;SDS011;12240;51.142;22.486;2022-12-05T03:58:07;21.13;;;7.90;;
24030;SDS011;12240;51.142;22.486;2022-12-05T04:00:44;14.48;;;6.30;;
24030;SDS011;12240;51.142;22.486;2022-12-05T04:03:19;19.70;;;6.97;;
24030;SDS011;12240;51.142;22.486;2022-12-05T04:06:08;17.58;;;7.18;;
24030;SDS011;12240;51.142;22.486;2022-12-05T04:09:13;16.40;;;6.82;;
24030;SDS011;12240;51.142;22.486;2022-12-05T04:11:48;13.07;;;6.40;;
24030;SDS011;12240;51.142;22.486;2022-12-05T04:14:45;12.05;;;5.60;;
24030;SDS011;12240;51.142;22.486;2022-12-05T04:20:26;15.13;;;6.75;;
24030;SDS011;12240;51.142;22.486;2022-12-05T04:23:23;12.23;;;5.95;;
24030;SDS011;12240;51.142;22.486;2022-12-05T04:28:48;18.02;;;7.38;;
24030;SDS011;12240;51.142;22.486;2022-12-05T04:31:26;13.82;;;6.05;;
24030;SDS011;12240;51.142;22.486;2022-12-05T04:34:07;19.02;;;7.68;;
24030;SDS011;12240;51.142;22.486;2022-12-05T04:36:45;14.10;;;6.10;;
24030;SDS011;12240;51.142;22.486;2022-12-05T04:42:18;17.80;;;7.90;;
24030;SDS011;12240;51.142;22.486;2022-12-05T04:44:56;18.75;;;8.05;;
24030;SDS011;12240;51.142;22.486;2022-12-05T04:47:35;15.07;;;6.90;;
24030;SDS011;12240;51.142;22.486;2022-12-05T04:50:11;20.17;;;7.18;;
24030;SDS011;12240;51.142;22.486;2022-12-05T04:52:41;15.25;;;7.10;;
24030;SDS011;12240;51.142;22.486;2022-12-05T04:55:16;16.40;;;7.20;;
24030;SDS011;12240;51.142;22.486;2022-12-05T05:00:50;18.33;;;8.10;;
24030;SDS011;12240;51.142;22.486;2022-12-05T05:03:50;19.33;;;7.50;;
24030;SDS011;12240;51.142;22.486;2022-12-05T05:06:37;17.15;;;6.18;;
24030;SDS011;12240;51.142;22.486;2022-12-05T05:09:07;20.98;;;8.50;;
24030;SDS011;12240;51.142;22.486;2022-12-05T05:11:36;14.25;;;6.10;;
24030;SDS011;12240;51.142;22.486;2022-12-05T05:14:04;19.77;;;8.18;;
24030;SDS011;12240;51.142;22.486;2022-12-05T05:16:39;19.30;;;8.00;;
24030;SDS011;12240;51.142;22.486;2022-12-05T05:19:09;21.55;;;9.07;;
24030;SDS011;12240;51.142;22.486;2022-12-05T05:21:41;20.48;;;7.88;;
24030;SDS011;12240;51.142;22.486;2022-12-05T05:24:09;19.73;;;8.55;;
24030;SDS011;12240;51.142;22.486;2022-12-05T05:26:45;21.42;;;8.57;;
24030;SDS011;12240;51.142;22.486;2022-12-05T05:29:21;18.83;;;8.13;;
24030;SDS011;12240;51.142;22.486;2022-12-05T05:31:49;16.58;;;7.82;;
24030;SDS011;12240;51.142;22.486;2022-12-05T05:34:17;23.73;;;9.25;;
24030;SDS011;12240;51.142;22.486;2022-12-05T05:36:49;17.27;;;5.57;;
24030;SDS011;12240;51.142;22.486;2022-12-05T05:39:19;13.38;;;6.68;;
24030;SDS011;12240;51.142;22.486;2022-12-05T05:41:49;19.90;;;8.00;;
24030;SDS011;12240;51.142;22.486;2022-12-05T05:44:20;21.25;;;8.52;;
24030;SDS011;12240;51.142;22.486;2022-12-05T05:46:51;21.48;;;8.27;;
24030;SDS011;12240;51.142;22.486;2022-12-05T05:49:19;22.90;;;7.90;;
24030;SDS011;12240;51.142;22.486;2022-12-05T05:51:47;19.05;;;9.20;;
24030;SDS011;12240;51.142;22.486;2022-12-05T05:54:15;22.00;;;7.28;;
24030;SDS011;12240;51.142;22.486;2022-12-05T05:56:43;17.10;;;7.63;;
24030;SDS011;12240;51.142;22.486;2022-12-05T05:59:14;18.15;;;7.88;;
24030;SDS011;12240;51.142;22.486;2022-12-05T06:01:43;18.88;;;6.90;;
24030;SDS011;12240;51.142;22.486;2022-12-05T06:04:10;18.83;;;8.25;;
24030;SDS011;12240;51.142;22.486;2022-12-05T06:06:39;17.58;;;6.10;;
24030;SDS011;12240;51.142;22.486;2022-12-05T06:09:07;19.75;;;8.57;;
24030;SDS011;12240;51.142;22.486;2022-12-05T06:11:35;19.02;;;8.15;;
24030;SDS011;12240;51.142;22.486;2022-12-05T06:14:07;25.27;;;9.38;;
24030;SDS011;12240;51.142;22.486;2022-12-05T06:16:35;24.35;;;10.00;;
24030;SDS011;12240;51.142;22.486;2022-12-05T06:19:04;20.05;;;8.15;;
24030;SDS011;12240;51.142;22.486;2022-12-05T06:21:31;25.13;;;9.23;;
24030;SDS011;12240;51.142;22.486;2022-12-05T06:23:59;28.50;;;10.63;;
24030;SDS011;12240;51.142;22.486;2022-12-05T06:26:28;20.98;;;8.25;;
24030;SDS011;12240;51.142;22.486;2022-12-05T06:29:00;23.45;;;8.75;;
24030;SDS011;12240;51.142;22.486;2022-12-05T06:31:29;25.42;;;10.05;;
24030;SDS011;12240;51.142;22.486;2022-12-05T06:34:00;28.65;;;12.38;;
24030;SDS011;12240;51.142;22.486;2022-12-05T06:36:30;23.60;;;10.40;;
24030;SDS011;12240;51.142;22.486;2022-12-05T06:38:58;24.40;;;10.00;;
24030;SDS011;12240;51.142;22.486;2022-12-05T06:41:27;26.63;;;12.02;;
24030;SDS011;12240;51.142;22.486;2022-12-05T06:43:56;23.67;;;9.50;;
24030;SDS011;12240;51.142;22.486;2022-12-05T06:46:28;20.95;;;8.15;;
24030;SDS011;12240;51.142;22.486;2022-12-05T06:48:57;23.85;;;9.27;;
24030;SDS011;12240;51.142;22.486;2022-12-05T06:51:28;27.80;;;10.65;;
24030;SDS011;12240;51.142;22.486;2022-12-05T06:54:03;26.05;;;10.18;;
24030;SDS011;12240;51.142;22.486;2022-12-05T06:56:31;21.08;;;8.82;;
24030;SDS011;12240;51.142;22.486;2022-12-05T06:58:59;21.42;;;8.73;;
24030;SDS011;12240;51.142;22.486;2022-12-05T07:01:27;23.55;;;9.30;;
24030;SDS011;12240;51.142;22.486;2022-12-05T07:04:06;24.05;;;9.43;;
24030;SDS011;12240;51.142;22.486;2022-12-05T07:06:47;20.38;;;8.63;;
24030;SDS011;12240;51.142;22.486;2022-12-05T07:09:21;25.98;;;10.63;;
24030;SDS011;12240;51.142;22.486;2022-12-05T07:12:16;20.80;;;7.57;;
24030;SDS011;12240;51.142;22.486;2022-12-05T07:14:48;29.98;;;10.68;;
24030;SDS011;12240;51.142;22.486;2022-12-05T07:17:20;23.17;;;10.13;;
24030;SDS011;12240;51.142;22.486;2022-12-05T07:19:49;24.63;;;9.75;;
24030;SDS011;12240;51.142;22.486;2022-12-05T07:22:19;22.52;;;9.70;;
24030;SDS011;12240;51.142;22.486;2022-12-05T07:24:52;19.67;;;7.95;;
24030;SDS011;12240;51.142;22.486;2022-12-05T07:27:20;16.75;;;7.07;;
24030;SDS011;12240;51.142;22.486;2022-12-05T07:29:54;20.45;;;8.43;;
24030;SDS011;12240;51.142;22.486;2022-12-05T07:32:23;23.65;;;9.63;;
24030;SDS011;12240;51.142;22.486;2022-12-05T07:34:51;28.95;;;12.23;;
24030;SDS011;12240;51.142;22.486;2022-12-05T07:37:21;27.92;;;10.52;;
24030;SDS011;12240;51.142;22.486;2022-12-05T07:39:53;26.33;;;10.05;;
24030;SDS011;12240;51.142;22.486;2022-12-05T07:42:23;24.00;;;9.20;;
24030;SDS011;12240;51.142;22.486;2022-12-05T07:44:51;30.75;;;11.07;;
24030;SDS011;12240;51.142;22.486;2022-12-05T07:47:22;19.23;;;7.70;;
24030;SDS011;12240;51.142;22.486;2022-12-05T07:49:50;29.10;;;12.60;;
24030;SDS011;12240;51.142;22.486;2022-12-05T07:52:18;31.48;;;13.15;;
24030;SDS011;12240;51.142;22.486;2022-12-05T07:54:51;23.85;;;10.63;;
24030;SDS011;12240;51.142;22.486;2022-12-05T07:57:21;31.23;;;12.95;;
24030;SDS011;12240;51.142;22.486;2022-12-05T07:59:50;29.38;;;11.88;;
24030;SDS011;12240;51.142;22.486;2022-12-05T08:02:18;19.95;;;8.57;;
24030;SDS011;12240;51.142;22.486;2022-12-05T08:04:49;27.65;;;10.13;;
24030;SDS011;12240;51.142;22.486;2022-12-05T08:07:17;24.45;;;10.80;;
24030;SDS011;12240;51.142;22.486;2022-12-05T08:09:45;26.80;;;11.52;;
24030;SDS011;12240;51.142;22.486;2022-12-05T08:12:18;30.65;;;12.40;;
24030;SDS011;12240;51.142;22.486;2022-12-05T08:14:49;25.20;;;10.63;;
24030;SDS011;12240;51.142;22.486;2022-12-05T08:17:17;24.27;;;8.38;;
24030;SDS011;12240;51.142;22.486;2022-12-05T08:19:45;25.55;;;10.40;;
24030;SDS011;12240;51.142;22.486;2022-12-05T08:22:13;26.00;;;11.15;;
24030;SDS011;12240;51.142;22.486;2022-12-05T08:24:42;40.83;;;14.65;;
24030;SDS011;12240;51.142;22.486;2022-12-05T08:27:10;24.70;;;10.15;;
24030;SDS011;12240;51.142;22.486;2022-12-05T08:29:38;35.63;;;14.50;;
24030;SDS011;12240;51.142;22.486;2022-12-05T08:32:08;33.22;;;14.35;;
24030;SDS011;12240;51.142;22.486;2022-12-05T08:34:36;27.42;;;10.75;;
24030;SDS011;12240;51.142;22.486;2022-12-05T08:37:05;33.90;;;12.52;;
24030;SDS011;12240;51.142;22.486;2022-12-05T08:39:35;23.83;;;9.98;;
24030;SDS011;12240;51.142;22.486;2022-12-05T08:42:14;40.13;;;14.38;;
24030;SDS011;12240;51.142;22.486;2022-12-05T08:44:42;30.83;;;10.60;;
24030;SDS011;12240;51.142;22.486;2022-12-05T08:47:13;37.38;;;13.77;;
24030;SDS011;12240;51.142;22.486;2022-12-05T08:49:43;25.33;;;10.52;;
24030;SDS011;12240;51.142;22.486;2022-12-05T08:52:12;22.85;;;9.32;;
24030;SDS011;12240;51.142;22.486;2022-12-05T08:55:01;30.50;;;10.68;;
24030;SDS011;12240;51.142;22.486;2022-12-05T08:57:40;25.55;;;10.20;;
24030;SDS011;12240;51.142;22.486;2022-12-05T09:00:14;19.15;;;7.65;;
24030;SDS011;12240;51.142;22.486;2022-12-05T09:02:52;20.67;;;9.65;;
24030;SDS011;12240;51.142;22.486;2022-12-05T09:05:50;21.13;;;9.13;;
24030;SDS011;12240;51.142;22.486;2022-12-05T09:08:21;21.67;;;8.60;;
24030;SDS011;12240;51.142;22.486;2022-12-05T09:11:19;25.38;;;8.90;;
24030;SDS011;12240;51.142;22.486;2022-12-05T09:14:03;25.05;;;10.15;;
24030;SDS011;12240;51.142;22.486;2022-12-05T09:16:46;23.40;;;10.07;;
24030;SDS011;12240;51.142;22.486;2022-12-05T09:19:30;29.80;;;11.43;;
24030;SDS011;12240;51.142;22.486;2022-12-05T09:22:18;23.75;;;7.03;;
24030;SDS011;12240;51.142;22.486;2022-12-05T09:25:04;26.30;;;12.02;;
24030;SDS011;12240;51.142;22.486;2022-12-05T09:27:37;27.90;;;10.93;;
24030;SDS011;12240;51.142;22.486;2022-12-05T09:30:25;27.38;;;12.15;;
24030;SDS011;12240;51.142;22.486;2022-12-05T09:33:02;22.85;;;10.07;;
24030;SDS011;12240;51.142;22.486;2022-12-05T09:35:37;25.48;;;8.98;;
24030;SDS011;12240;51.142;22.486;2022-12-05T09:38:18;22.98;;;9.13;;
24030;SDS011;12240;51.142;22.486;2022-12-05T09:41:01;26.42;;;11.05;;
24030;SDS011;12240;51.142;22.486;2022-12-05T09:44:02;25.17;;;10.57;;
24030;SDS011;12240;51.142;22.486;2022-12-05T09:50:01;25.23;;;10.13;;
24030;SDS011;12240;51.142;22.486;2022-12-05T09:52:59;33.67;;;12.52;;
24030;SDS011;12240;51.142;22.486;2022-12-05T09:59:00;27.58;;;11.30;;
24030;SDS011;12240;51.142;22.486;2022-12-05T10:01:39;25.85;;;10.18;;
24030;SDS011;12240;51.142;22.486;2022-12-05T10:07:50;23.65;;;9.05;;
24030;SDS011;12240;51.142;22.486;2022-12-05T10:10:38;28.75;;;10.60;;
24030;SDS011;12240;51.142;22.486;2022-12-05T10:16:34;31.48;;;11.95;;
24030;SDS011;12240;51.142;22.486;2022-12-05T10:19:27;24.17;;;10.52;;
24030;SDS011;12240;51.142;22.486;2022-12-05T10:22:12;33.45;;;12.82;;
24030;SDS011;12240;51.142;22.486;2022-12-05T10:25:18;21.27;;;8.75;;
24030;SDS011;12240;51.142;22.486;2022-12-05T10:27:53;17.55;;;8.65;;
24030;SDS011;12240;51.142;22.486;2022-12-05T10:30:31;23.88;;;8.63;;
24030;SDS011;12240;51.142;22.486;2022-12-05T10:33:03;23.48;;;9.45;;
24030;SDS011;12240;51.142;22.486;2022-12-05T10:35:48;21.50;;;7.90;;
24030;SDS011;12240;51.142;22.486;2022-12-05T10:38:27;17.45;;;7.65;;
24030;SDS011;12240;51.142;22.486;2022-12-05T10:40:58;25.25;;;9.82;;
24030;SDS011;12240;51.142;22.486;2022-12-05T10:43:32;20.60;;;10.18;;
24030;SDS011;12240;51.142;22.486;2022-12-05T10:46:12;25.98;;;10.80;;
24030;SDS011;12240;51.142;22.486;2022-12-05T10:48:47;35.08;;;15.15;;
24030;SDS011;12240;51.142;22.486;2022-12-05T10:51:16;26.55;;;12.18;;
24030;SDS011;12240;51.142;22.486;2022-12-05T10:53:49;25.60;;;11.32;;
24030;SDS011;12240;51.142;22.486;2022-12-05T10:59:19;28.63;;;11.20;;
24030;SDS011;12240;51.142;22.486;2022-12-05T11:01:56;26.83;;;11.60;;
24030;SDS011;12240;51.142;22.486;2022-12-05T11:04:45;27.92;;;11.90;;
24030;SDS011;12240;51.142;22.486;2022-12-05T11:07:23;27.55;;;11.82;;
24030;SDS011;12240;51.142;22.486;2022-12-05T11:10:24;36.22;;;13.60;;
24030;SDS011;12240;51.142;22.486;2022-12-05T11:12:59;22.60;;;9.48;;
24030;SDS011;12240;51.142;22.486;2022-12-05T11:15:29;24.67;;;8.90;;
24030;SDS011;12240;51.142;22.486;2022-12-05T11:18:16;20.98;;;9.93;;
24030;SDS011;12240;51.142;22.486;2022-12-05T11:21:09;23.25;;;10.27;;
24030;SDS011;12240;51.142;22.486;2022-12-05T11:23:39;24.25;;;10.93;;
24030;SDS011;12240;51.142;22.486;2022-12-05T11:29:26;24.90;;;9.90;;
24030;SDS011;12240;51.142;22.486;2022-12-05T11:32:17;25.75;;;11.13;;
24030;SDS011;12240;51.142;22.486;2022-12-05T11:37:37;17.70;;;7.43;;
24030;SDS011;12240;51.142;22.486;2022-12-05T11:40:38;23.90;;;10.02;;
24030;SDS011;12240;51.142;22.486;2022-12-05T11:49:32;31.73;;;11.02;;
24030;SDS011;12240;51.142;22.486;2022-12-05T11:52:56;30.10;;;12.00;;
24030;SDS011;12240;51.142;22.486;2022-12-05T12:08:38;22.30;;;10.55;;
24030;SDS011;12240;51.142;22.486;2022-12-05T12:14:34;21.83;;;10.07;;
24030;SDS011;12240;51.142;22.486;2022-12-05T12:17:35;26.33;;;11.65;;
24030;SDS011;12240;51.142;22.486;2022-12-05T12:26:15;26.83;;;12.93;;
24030;SDS011;12240;51.142;22.486;2022-12-05T12:46:51;21.67;;;9.80;;
24030;SDS011;12240;51.142;22.486;2022-12-05T12:52:22;24.17;;;11.27;;
24030;SDS011;12240;51.142;22.486;2022-12-05T12:54:59;19.65;;;8.90;;
24030;SDS011;12240;51.142;22.486;2022-12-05T13:03:25;25.27;;;9.55;;
24030;SDS011;12240;51.142;22.486;2022-12-05T13:06:09;26.23;;;11.35;;
24030;SDS011;12240;51.142;22.486;2022-12-05T13:09:10;23.58;;;11.40;;
24030;SDS011;12240;51.142;22.486;2022-12-05T13:11:52;23.33;;;10.52;;
24030;SDS011;12240;51.142;22.486;2022-12-05T13:14:32;30.95;;;13.00;;
24030;SDS011;12240;51.142;22.486;2022-12-05T13:17:14;26.08;;;10.90;;
24030;SDS011;12240;51.142;22.486;2022-12-05T13:19:48;19.80;;;9.07;;
24030;SDS011;12240;51.142;22.486;2022-12-05T13:22:22;24.95;;;10.15;;
24030;SDS011;12240;51.142;22.486;2022-12-05T13:24:58;20.33;;;10.45;;
24030;SDS011;12240;51.142;22.486;2022-12-05T13:27:27;28.55;;;12.20;;
24030;SDS011;12240;51.142;22.486;2022-12-05T13:29:59;28.75;;;12.95;;
24030;SDS011;12240;51.142;22.486;2022-12-05T13:32:35;22.40;;;10.57;;
24030;SDS011;12240;51.142;22.486;2022-12-05T13:38:31;25.60;;;9.90;;
24030;SDS011;12240;51.142;22.486;2022-12-05T13:41:27;23.92;;;10.30;;
24030;SDS011;12240;51.142;22.486;2022-12-05T13:44:30;21.90;;;9.32;;
24030;SDS011;12240;51.142;22.486;2022-12-05T13:47:04;18.52;;;8.27;;
24030;SDS011;12240;51.142;22.486;2022-12-05T13:49:45;19.60;;;7.90;;
24030;SDS011;12240;51.142;22.486;2022-12-05T13:52:25;27.25;;;11.23;;
24030;SDS011;12240;51.142;22.486;2022-12-05T13:55:11;26.10;;;12.07;;
24030;SDS011;12240;51.142;22.486;2022-12-05T14:00:46;31.52;;;13.98;;
24030;SDS011;12240;51.142;22.486;2022-12-05T14:05:59;24.33;;;11.95;;
24030;SDS011;12240;51.142;22.486;2022-12-05T14:13:40;25.05;;;10.85;;
24030;SDS011;12240;51.142;22.486;2022-12-05T14:19:13;25.88;;;11.93;;
24030;SDS011;12240;51.142;22.486;2022-12-05T14:24:45;21.15;;;9.35;;
24030;SDS011;12240;51.142;22.486;2022-12-05T14:27:24;25.00;;;11.02;;
24030;SDS011;12240;51.142;22.486;2022-12-05T14:33:38;26.02;;;11.93;;
24030;SDS011;12240;51.142;22.486;2022-12-05T14:36:07;29.95;;;12.82;;
24030;SDS011;12240;51.142;22.486;2022-12-05T14:38:45;33.47;;;14.18;;
24030;SDS011;12240;51.142;22.486;2022-12-05T14:41:25;27.70;;;10.80;;
24030;SDS011;12240;51.142;22.486;2022-12-05T14:43:59;38.65;;;14.98;;
24030;SDS011;12240;51.142;22.486;2022-12-05T14:46:34;32.63;;;13.48;;
24030;SDS011;12240;51.142;22.486;2022-12-05T14:52:22;26.52;;;9.52;;
24030;SDS011;12240;51.142;22.486;2022-12-05T14:54:56;30.15;;;12.52;;
24030;SDS011;12240;51.142;22.486;2022-12-05T14:57:29;31.73;;;12.00;;
24030;SDS011;12240;51.142;22.486;2022-12-05T15:00:04;30.35;;;10.43;;
24030;SDS011;12240;51.142;22.486;2022-12-05T15:02:36;19.33;;;8.38;;
24030;SDS011;12240;51.142;22.486;2022-12-05T15:08:00;35.17;;;14.13;;
24030;SDS011;12240;51.142;22.486;2022-12-05T15:10:32;28.05;;;13.20;;
24030;SDS011;12240;51.142;22.486;2022-12-05T15:13:06;36.83;;;15.52;;
24030;SDS011;12240;51.142;22.486;2022-12-05T15:15:43;25.02;;;10.43;;
24030;SDS011;12240;51.142;22.486;2022-12-05T15:18:23;24.48;;;11.23;;
24030;SDS011;12240;51.142;22.486;2022-12-05T15:21:21;30.52;;;13.20;;
24030;SDS011;12240;51.142;22.486;2022-12-05T15:24:15;35.28;;;13.88;;
24030;SDS011;12240;51.142;22.486;2022-12-05T15:31:59;26.25;;;11.95;;
24030;SDS011;12240;51.142;22.486;2022-12-05T15:42:41;29.98;;;12.52;;
24030;SDS011;12240;51.142;22.486;2022-12-05T15:47:56;24.80;;;9.63;;
24030;SDS011;12240;51.142;22.486;2022-12-05T15:50:48;21.05;;;9.85;;
24030;SDS011;12240;51.142;22.486;2022-12-05T15:54:03;25.58;;;10.82;;
24030;SDS011;12240;51.142;22.486;2022-12-05T15:58:59;21.52;;;9.25;;
24030;SDS011;12240;51.142;22.486;2022-12-05T16:01:52;17.10;;;9.27;;
24030;SDS011;12240;51.142;22.486;2022-12-05T16:04:45;29.55;;;11.23;;
24030;SDS011;12240;51.142;22.486;2022-12-05T16:07:18;17.20;;;7.13;;
24030;SDS011;12240;51.142;22.486;2022-12-05T16:09:54;23.02;;;10.40;;
24030;SDS011;12240;51.142;22.486;2022-12-05T16:12:36;23.33;;;11.73;;
24030;SDS011;12240;51.142;22.486;2022-12-05T16:15:26;26.17;;;12.38;;
24030;SDS011;12240;51.142;22.486;2022-12-05T16:17:56;21.75;;;10.18;;
24030;SDS011;12240;51.142;22.486;2022-12-05T16:20:33;27.60;;;11.55;;
24030;SDS011;12240;51.142;22.486;2022-12-05T16:23:05;24.58;;;10.07;;
24030;SDS011;12240;51.142;22.486;2022-12-05T16:26:17;29.15;;;12.32;;
24030;SDS011;12240;51.142;22.486;2022-12-05T16:29:00;27.00;;;12.18;;
24030;SDS011;12240;51.142;22.486;2022-12-05T16:31:29;30.08;;;9.57;;
24030;SDS011;12240;51.142;22.486;2022-12-05T16:34:05;22.27;;;10.18;;
24030;SDS011;12240;51.142;22.486;2022-12-05T16:36:45;27.08;;;11.30;;
24030;SDS011;12240;51.142;22.486;2022-12-05T16:39:15;32.38;;;12.27;;
24030;SDS011;12240;51.142;22.486;2022-12-05T16:41:46;30.20;;;12.93;;
24030;SDS011;12240;51.142;22.486;2022-12-05T16:44:34;24.45;;;10.73;;
24030;SDS011;12240;51.142;22.486;2022-12-05T16:47:23;22.17;;;10.10;;
24030;SDS011;12240;51.142;22.486;2022-12-05T16:49:53;23.08;;;9.93;;
24030;SDS011;12240;51.142;22.486;2022-12-05T16:52:22;29.67;;;12.90;;
24030;SDS011;12240;51.142;22.486;2022-12-05T16:54:59;22.35;;;10.00;;
24030;SDS011;12240;51.142;22.486;2022-12-05T16:57:28;29.60;;;12.20;;
24030;SDS011;12240;51.142;22.486;2022-12-05T16:59:59;25.60;;;11.13;;
24030;SDS011;12240;51.142;22.486;2022-12-05T17:02:32;34.00;;;13.35;;
24030;SDS011;12240;51.142;22.486;2022-12-05T17:05:05;29.70;;;11.93;;
24030;SDS011;12240;51.142;22.486;2022-12-05T17:07:40;31.13;;;12.77;;
24030;SDS011;12240;51.142;22.486;2022-12-05T17:10:09;29.30;;;11.40;;
24030;SDS011;12240;51.142;22.486;2022-12-05T17:12:37;29.73;;;11.07;;
24030;SDS011;12240;51.142;22.486;2022-12-05T17:15:15;30.10;;;11.95;;
24030;SDS011;12240;51.142;22.486;2022-12-05T17:17:45;32.47;;;13.32;;
24030;SDS011;12240;51.142;22.486;2022-12-05T17:20:13;28.73;;;15.02;;
24030;SDS011;12240;51.142;22.486;2022-12-05T17:22:42;24.33;;;11.45;;
24030;SDS011;12240;51.142;22.486;2022-12-05T17:25:19;30.25;;;12.40;;
24030;SDS011;12240;51.142;22.486;2022-12-05T17:27:57;26.63;;;11.82;;
24030;SDS011;12240;51.142;22.486;2022-12-05T17:30:25;34.38;;;13.20;;
24030;SDS011;12240;51.142;22.486;2022-12-05T17:32:53;30.10;;;11.98;;
24030;SDS011;12240;51.142;22.486;2022-12-05T17:35:22;29.73;;;12.73;;
24030;SDS011;12240;51.142;22.486;2022-12-05T17:37:51;24.20;;;9.75;;
24030;SDS011;12240;51.142;22.486;2022-12-05T17:40:19;27.10;;;13.02;;
24030;SDS011;12240;51.142;22.486;2022-12-05T17:42:47;18.48;;;7.45;;
24030;SDS011;12240;51.142;22.486;2022-12-05T17:45:15;28.17;;;11.35;;
24030;SDS011;12240;51.142;22.486;2022-12-05T17:47:43;30.65;;;13.25;;
24030;SDS011;12240;51.142;22.486;2022-12-05T17:50:13;31.60;;;12.90;;
24030;SDS011;12240;51.142;22.486;2022-12-05T17:52:44;21.17;;;10.25;;
24030;SDS011;12240;51.142;22.486;2022-12-05T17:55:14;35.92;;;14.18;;
24030;SDS011;12240;51.142;22.486;2022-12-05T17:57:46;24.30;;;8.77;;
24030;SDS011;12240;51.142;22.486;2022-12-05T18:00:15;33.97;;;14.05;;
24030;SDS011;12240;51.142;22.486;2022-12-05T18:02:45;32.17;;;13.23;;
24030;SDS011;12240;51.142;22.486;2022-12-05T18:05:13;33.50;;;13.93;;